createdAt,value
2023-01-01T00:20:42.365Z,9.63
2023-01-01T00:23:11.244Z,9.67
2023-01-01T00:25:40.957Z,9.71
2023-01-01T00:28:11.111Z,9.66
2023-01-01T00:30:42.691Z,9.64
2023-01-01T00:33:11.558Z,9.62
2023-01-01T00:35:40.720Z,9.66
2023-01-01T00:38:10.766Z,9.66
2023-01-01T00:40:40.148Z,9.44
2023-01-01T00:43:08.827Z,9.64
2023-01-01T00:45:38.040Z,9.42
2023-01-01T00:48:07.325Z,9.55
2023-01-01T00:50:37.403Z,9.58
2023-01-01T00:53:06.553Z,9.58
2023-01-01T00:55:36.293Z,9.67
2023-01-01T00:58:04.938Z,9.68
2023-01-01T01:00:33.701Z,9.68
2023-01-01T01:03:02.505Z,9.68
2023-01-01T01:05:33.380Z,9.74
2023-01-01T01:08:02.201Z,9.63
2023-01-01T01:10:30.640Z,9.68
2023-01-01T01:13:00.995Z,9.52
2023-01-01T01:15:32.527Z,9.52
2023-01-01T01:18:01.503Z,9.37
2023-01-01T01:20:30.292Z,9.32
2023-01-01T01:22:59.228Z,9.36
2023-01-01T01:25:28.478Z,9.31
2023-01-01T01:27:56.918Z,9.38
2023-01-01T01:30:27.067Z,9.40
2023-01-01T01:32:56.456Z,9.39
2023-01-01T01:35:24.872Z,9.34
2023-01-01T01:37:53.986Z,9.37
2023-01-01T01:40:22.836Z,9.33
2023-01-01T01:42:52.802Z,9.35
2023-01-01T01:45:21.166Z,9.37
2023-01-01T01:47:54.573Z,9.34
2023-01-01T01:50:27.758Z,9.34
2023-01-01T01:53:04.570Z,9.28
2023-01-01T01:55:36.450Z,9.30
2023-01-01T01:58:07.098Z,9.28
2023-01-01T02:00:36.687Z,9.28
2023-01-01T02:03:09.178Z,9.18
2023-01-01T02:05:41.928Z,9.09
2023-01-01T02:08:14.571Z,9.16
2023-01-01T02:10:47.072Z,9.20
2023-01-01T02:13:16.166Z,9.11
2023-01-01T02:15:53.447Z,9.21
2023-01-01T02:18:26.719Z,9.23
2023-01-01T02:21:01.262Z,9.18
2023-01-01T02:24:01.933Z,9.12
2023-01-01T02:26:43.670Z,9.04
2023-01-01T02:29:21.899Z,8.95
2023-01-01T02:31:54.756Z,9.07
2023-01-01T02:34:27.868Z,9.06
2023-01-01T02:36:59.379Z,9.07
2023-01-01T02:39:34.782Z,9.03
2023-01-01T02:42:07.098Z,9.04
2023-01-01T02:44:42.698Z,8.91
2023-01-01T02:47:14.941Z,8.87
2023-01-01T02:49:56.249Z,8.88
2023-01-01T02:52:43.471Z,8.87
2023-01-01T02:55:25.992Z,8.87
2023-01-01T02:58:22.603Z,8.77
2023-01-01T03:00:56.252Z,8.81
2023-01-01T03:03:33.647Z,8.80
2023-01-01T03:06:27.782Z,8.80
2023-01-01T03:09:09.476Z,8.87
2023-01-01T03:11:47.166Z,8.81
2023-01-01T03:14:21.963Z,8.84
2023-01-01T03:16:59.147Z,8.86
2023-01-01T03:19:31.105Z,8.86
2023-01-01T03:22:05.482Z,8.82
2023-01-01T03:24:36.247Z,8.78
2023-01-01T03:27:09.669Z,8.67
2023-01-01T03:29:41.918Z,8.72
2023-01-01T03:32:15.141Z,8.62
2023-01-01T03:34:49.478Z,8.55
2023-01-01T03:37:26.772Z,8.59
2023-01-01T03:39:59.560Z,8.57
2023-01-01T03:42:34.805Z,8.67
2023-01-01T03:45:08.212Z,8.63
2023-01-01T03:47:38.476Z,8.66
2023-01-01T03:50:08.795Z,8.69
2023-01-01T03:52:44.676Z,8.68
2023-01-01T03:55:19.946Z,8.62
2023-01-01T03:57:56.674Z,8.45
2023-01-01T04:00:32.545Z,8.35
2023-01-01T04:03:07.774Z,8.34
2023-01-01T04:05:38.809Z,8.33
2023-01-01T04:08:09.678Z,8.15
2023-01-01T04:10:42.980Z,8.35
2023-01-01T04:13:12.219Z,8.27
2023-01-01T04:15:41.032Z,8.32
2023-01-01T04:18:11.184Z,8.27
2023-01-01T04:20:39.617Z,8.29
2023-01-01T04:23:09.151Z,8.35
2023-01-01T04:25:38.189Z,8.36
2023-01-01T04:28:06.794Z,8.38
2023-01-01T04:33:03.988Z,8.30
2023-01-01T04:35:35.734Z,8.24
2023-01-01T04:38:04.288Z,8.16
2023-01-01T04:40:34.142Z,8.05
2023-01-01T04:43:02.866Z,7.91
2023-01-01T04:45:32.345Z,7.98
2023-01-01T04:48:05.867Z,8.06
2023-01-01T04:50:36.128Z,8.00
2023-01-01T04:53:04.752Z,8.19
2023-01-01T04:55:35.213Z,8.02
2023-01-01T04:58:04.671Z,8.21
2023-01-01T05:00:33.158Z,8.15
2023-01-01T05:03:02.838Z,8.23
2023-01-01T05:05:31.449Z,8.34
2023-01-01T05:08:02.042Z,8.37
2023-01-01T05:10:30.612Z,8.39
2023-01-01T05:12:59.804Z,8.36
2023-01-01T05:15:28.778Z,8.32
2023-01-01T05:17:57.414Z,8.15
2023-01-01T05:20:26.697Z,8.29
2023-01-01T05:22:55.125Z,8.28
2023-01-01T05:25:25.936Z,8.23
2023-01-01T05:27:55.363Z,8.10
2023-01-01T05:30:24.667Z,8.15
2023-01-01T05:32:53.425Z,8.13
2023-01-01T05:35:26.174Z,8.13
2023-01-01T05:37:56.154Z,8.09
2023-01-01T05:40:25.834Z,8.05
2023-01-01T05:42:54.451Z,8.05
2023-01-01T05:45:23.113Z,8.06
2023-01-01T05:47:52.102Z,8.09
2023-01-01T05:50:20.525Z,8.10
2023-01-01T05:52:49.832Z,8.10
2023-01-01T05:55:18.531Z,8.06
2023-01-01T05:57:48.206Z,8.07
2023-01-01T06:00:17.821Z,8.08
2023-01-01T06:02:46.210Z,8.03
2023-01-01T06:05:15.057Z,7.93
2023-01-01T06:07:48.403Z,7.88
2023-01-01T06:10:18.277Z,7.81
2023-01-01T06:12:47.926Z,7.76
2023-01-01T06:15:17.125Z,7.76
2023-01-01T06:17:45.474Z,7.75
2023-01-01T06:20:14.573Z,7.64
2023-01-01T06:22:42.989Z,7.57
2023-01-01T06:25:12.690Z,7.56
2023-01-01T06:27:42.064Z,7.59
2023-01-01T06:30:13.167Z,7.65
2023-01-01T06:32:41.496Z,7.59
2023-01-01T06:35:10.551Z,7.64
2023-01-01T06:37:38.882Z,7.63
2023-01-01T06:40:09.407Z,7.59
2023-01-01T06:42:37.720Z,7.59
2023-01-01T06:45:08.043Z,7.58
2023-01-01T06:47:38.628Z,7.50
2023-01-01T06:50:09.297Z,7.48
2023-01-01T06:52:37.657Z,7.48
2023-01-01T06:55:08.081Z,7.43
2023-01-01T06:57:36.589Z,7.34
2023-01-01T07:00:06.704Z,7.44
2023-01-01T07:02:37.538Z,7.39
2023-01-01T07:05:07.411Z,7.36
2023-01-01T07:07:36.203Z,7.31
2023-01-01T07:10:05.903Z,7.33
2023-01-01T07:12:34.442Z,7.42
2023-01-01T07:15:03.187Z,7.45
2023-01-01T07:17:32.483Z,7.43
2023-01-01T07:20:02.230Z,7.39
2023-01-01T07:22:31.616Z,7.37
2023-01-01T07:24:59.922Z,7.36
2023-01-01T07:27:28.556Z,7.43
2023-01-01T07:29:57.037Z,7.47
2023-01-01T07:32:25.437Z,7.46
2023-01-01T07:34:53.752Z,7.49
2023-01-01T07:37:26.133Z,7.56
2023-01-01T07:39:54.761Z,7.64
2023-01-01T07:42:23.084Z,7.69
2023-01-01T07:44:52.367Z,7.67
2023-01-01T07:47:23.962Z,7.60
2023-01-01T07:49:52.753Z,7.60
2023-01-01T07:52:21.175Z,7.64
2023-01-01T07:54:50.815Z,7.72
2023-01-01T07:57:19.652Z,7.78
2023-01-01T07:59:48.312Z,7.78
2023-01-01T08:02:16.766Z,7.80
2023-01-01T08:04:45.242Z,7.91
2023-01-01T08:07:13.563Z,8.03
2023-01-01T08:09:41.994Z,8.15
2023-01-01T08:12:11.673Z,8.09
2023-01-01T08:14:40.780Z,8.21
2023-01-01T08:17:09.124Z,8.32
2023-01-01T08:19:38.165Z,8.41
2023-01-01T08:22:07.024Z,8.39
2023-01-01T08:24:36.078Z,8.40
2023-01-01T08:27:05.056Z,8.53
2023-01-01T08:29:35.134Z,8.68
2023-01-01T08:32:03.880Z,8.82
2023-01-01T08:34:32.209Z,9.11
2023-01-01T08:37:01.033Z,9.51
2023-01-01T08:39:30.011Z,9.89
2023-01-01T08:41:58.332Z,10.09
2023-01-01T08:44:26.659Z,10.07
2023-01-01T08:46:56.347Z,10.18
2023-01-01T08:49:25.165Z,10.31
2023-01-01T08:51:53.518Z,10.26
2023-01-01T08:54:22.328Z,10.14
2023-01-01T08:56:50.704Z,10.09
2023-01-01T08:59:20.726Z,10.03
2023-01-01T09:01:49.770Z,10.11
2023-01-01T09:04:19.659Z,10.15
2023-01-01T09:06:47.972Z,10.29
2023-01-01T09:09:18.692Z,10.44
2023-01-01T09:11:52.084Z,10.46
2023-01-01T09:14:20.888Z,10.54
2023-01-01T09:16:49.509Z,10.68
2023-01-01T09:19:21.701Z,10.84
2023-01-01T09:21:50.049Z,11.02
2023-01-01T09:24:18.401Z,11.26
2023-01-01T09:26:47.617Z,11.50
2023-01-01T09:29:18.515Z,11.52
2023-01-01T09:31:48.023Z,11.63
2023-01-01T09:34:18.019Z,11.73
2023-01-01T09:36:48.797Z,11.92
2023-01-01T09:39:19.006Z,11.99
2023-01-01T09:41:58.675Z,12.15
2023-01-01T09:44:45.650Z,12.26
2023-01-01T09:47:25.123Z,12.31
2023-01-01T09:49:58.387Z,12.42
2023-01-01T09:52:36.779Z,12.54
2023-01-01T09:55:16.308Z,12.71
2023-01-01T09:57:44.649Z,12.76
2023-01-01T10:00:17.450Z,12.73
2023-01-01T10:03:02.578Z,12.70
2023-01-01T10:05:42.933Z,12.67
2023-01-01T10:08:24.664Z,12.84
2023-01-01T10:11:02.904Z,13.02
2023-01-01T10:13:38.133Z,13.15
2023-01-01T10:16:13.451Z,13.33
2023-01-01T10:18:44.501Z,13.51
2023-01-01T10:21:17.871Z,13.64
2023-01-01T10:23:51.551Z,13.84
2023-01-01T10:26:23.947Z,13.94
2023-01-01T10:29:01.635Z,14.05
2023-01-01T10:31:34.592Z,14.14
2023-01-01T10:34:12.835Z,14.27
2023-01-01T10:36:41.715Z,14.28
2023-01-01T10:39:16.043Z,14.56
2023-01-01T10:41:44.945Z,14.69
2023-01-01T10:44:15.065Z,14.91
2023-01-01T10:46:48.860Z,15.09
2023-01-01T10:49:17.213Z,15.31
2023-01-01T10:51:48.511Z,15.51
2023-01-01T10:54:36.666Z,15.85
2023-01-01T10:57:15.944Z,16.17
2023-01-01T10:59:51.737Z,16.40
2023-01-01T11:02:25.185Z,16.44
2023-01-01T11:05:20.850Z,16.68
2023-01-01T11:07:51.366Z,16.87
2023-01-01T11:10:23.826Z,16.82
2023-01-01T11:13:10.237Z,16.78
2023-01-01T11:15:41.016Z,16.70
2023-01-01T11:18:16.681Z,16.94
2023-01-01T11:20:45.193Z,17.08
2023-01-01T11:23:29.622Z,17.14
2023-01-01T11:26:01.665Z,17.21
2023-01-01T11:28:34.706Z,17.24
2023-01-01T11:31:22.618Z,17.43
2023-01-01T11:33:53.896Z,17.42
2023-01-01T11:36:25.046Z,17.43
2023-01-01T11:39:08.241Z,17.63
2023-01-01T11:41:46.403Z,17.72
2023-01-01T11:44:26.875Z,17.76
2023-01-01T11:46:55.497Z,17.81
2023-01-01T11:49:29.204Z,17.87
2023-01-01T11:51:58.687Z,17.91
2023-01-01T11:54:32.831Z,17.96
2023-01-01T11:57:11.064Z,17.92
2023-01-01T11:59:46.759Z,18.00
2023-01-01T12:02:22.572Z,18.00
2023-01-01T12:04:57.038Z,17.86
2023-01-01T12:07:32.321Z,17.67
2023-01-01T12:10:05.730Z,17.65
2023-01-01T12:12:40.428Z,17.84
2023-01-01T12:15:19.829Z,17.77
2023-01-01T12:17:53.275Z,17.80
2023-01-01T12:20:26.953Z,18.27
2023-01-01T12:22:56.807Z,18.41
2023-01-01T12:25:33.777Z,18.58
2023-01-01T12:28:13.293Z,18.83
2023-01-01T12:30:50.709Z,18.85
2023-01-01T12:33:34.182Z,18.73
2023-01-01T12:36:20.525Z,18.82
2023-01-01T12:39:41.501Z,19.09
2023-01-01T12:42:18.622Z,19.24
2023-01-01T12:45:09.198Z,19.31
2023-01-01T12:47:45.813Z,19.39
2023-01-01T12:50:28.706Z,19.24
2023-01-01T12:53:08.892Z,19.26
2023-01-01T12:56:22.451Z,19.38
2023-01-01T12:58:56.795Z,19.52
2023-01-01T13:01:33.330Z,19.56
2023-01-01T13:04:05.303Z,19.70
2023-01-01T13:06:41.102Z,19.71
2023-01-01T13:09:16.639Z,19.67
2023-01-01T13:11:47.760Z,19.87
2023-01-01T13:14:16.869Z,20.04
2023-01-01T13:16:50.597Z,19.98
2023-01-01T13:19:28.671Z,19.60
2023-01-01T13:21:56.981Z,20.02
2023-01-01T13:24:27.840Z,20.31
2023-01-01T13:26:56.611Z,20.49
2023-01-01T13:29:44.181Z,20.56
2023-01-01T13:32:16.072Z,20.64
2023-01-01T13:35:03.905Z,20.59
2023-01-01T13:37:45.252Z,20.65
2023-01-01T13:40:47.987Z,20.66
2023-01-01T13:43:29.328Z,20.67
2023-01-01T13:46:15.230Z,20.56
2023-01-01T13:49:13.746Z,20.65
2023-01-01T13:52:06.445Z,20.71
2023-01-01T13:55:16.284Z,20.76
2023-01-01T13:58:11.749Z,20.70
2023-01-01T14:00:50.042Z,20.72
2023-01-01T14:03:22.220Z,20.77
2023-01-01T14:05:58.098Z,20.86
2023-01-01T14:08:30.955Z,20.84
2023-01-01T14:11:02.378Z,20.79
2023-01-01T14:13:32.620Z,20.75
2023-01-01T14:16:04.235Z,20.71
2023-01-01T14:18:35.591Z,20.70
2023-01-01T14:21:11.082Z,20.64
2023-01-01T14:23:42.922Z,20.40
2023-01-01T14:26:15.021Z,20.20
2023-01-01T14:28:45.102Z,19.90
2023-01-01T14:31:17.247Z,19.61
2023-01-01T14:33:47.426Z,19.39
2023-01-01T14:36:23.244Z,19.16
2023-01-01T14:38:53.132Z,18.89
2023-01-01T14:41:28.663Z,18.53
2023-01-01T14:44:00.037Z,18.29
2023-01-01T14:46:29.171Z,18.01
2023-01-01T14:48:59.685Z,17.87
2023-01-01T14:51:33.106Z,17.82
2023-01-01T14:54:03.929Z,17.62
2023-01-01T14:56:35.297Z,17.37
2023-01-01T14:59:07.939Z,17.12
2023-01-01T15:01:37.274Z,16.91
2023-01-01T15:04:18.999Z,16.63
2023-01-01T15:06:54.824Z,16.56
2023-01-01T15:09:23.534Z,16.48
2023-01-01T15:11:53.841Z,16.32
2023-01-01T15:14:34.696Z,16.31
2023-01-01T15:17:05.647Z,16.25
2023-01-01T15:19:36.877Z,16.11
2023-01-01T15:22:12.366Z,15.84
2023-01-01T15:24:42.092Z,15.77
2023-01-01T15:27:22.576Z,15.64
2023-01-01T15:29:52.044Z,15.42
2023-01-01T15:32:26.349Z,15.24
2023-01-01T15:34:57.765Z,15.24
2023-01-01T15:37:34.563Z,15.03
2023-01-01T15:40:24.308Z,15.04
2023-01-01T15:43:22.675Z,14.95
2023-01-01T15:45:54.849Z,14.80
2023-01-01T15:48:31.307Z,14.70
2023-01-01T15:51:13.124Z,14.53
2023-01-01T15:53:50.434Z,14.38
2023-01-01T15:56:19.655Z,14.24
2023-01-01T15:58:56.763Z,14.09
2023-01-01T16:01:29.144Z,14.06
2023-01-01T16:04:04.366Z,13.95
2023-01-01T16:06:33.539Z,13.84
2023-01-01T16:09:02.433Z,13.76
2023-01-01T16:11:30.809Z,13.70
2023-01-01T16:14:01.431Z,13.67
2023-01-01T16:16:32.266Z,13.51
2023-01-01T16:19:02.681Z,13.53
2023-01-01T16:21:34.326Z,13.46
2023-01-01T16:24:02.741Z,13.42
2023-01-01T16:26:32.298Z,13.24
2023-01-01T16:29:02.479Z,13.28
2023-01-01T16:31:32.102Z,13.23
2023-01-01T16:34:02.205Z,13.15
2023-01-01T16:36:32.340Z,13.07
2023-01-01T16:39:01.290Z,12.94
2023-01-01T16:41:30.981Z,12.89
2023-01-01T16:43:59.989Z,12.88
2023-01-01T16:46:30.280Z,12.85
2023-01-01T16:48:59.696Z,12.85
2023-01-01T16:51:30.122Z,12.82
2023-01-01T16:54:01.376Z,12.84
2023-01-01T16:56:30.137Z,12.78
2023-01-01T16:59:03.444Z,12.78
2023-01-01T17:01:33.710Z,12.71
2023-01-01T17:04:03.230Z,12.57
2023-01-01T17:06:31.687Z,12.45
2023-01-01T17:09:01.633Z,12.35
2023-01-01T17:11:29.985Z,12.33
2023-01-01T17:13:59.627Z,12.32
2023-01-01T17:16:36.246Z,12.31
2023-01-01T17:19:14.890Z,12.33
2023-01-01T17:21:45.173Z,12.28
2023-01-01T17:24:13.789Z,12.22
2023-01-01T17:26:42.211Z,12.22
2023-01-01T17:29:12.211Z,12.19
2023-01-01T17:31:40.655Z,12.20
2023-01-01T17:34:14.512Z,12.16
2023-01-01T17:36:45.137Z,12.04
2023-01-01T17:39:15.245Z,11.97
2023-01-01T17:41:45.767Z,11.92
2023-01-01T17:44:14.229Z,11.91
2023-01-01T17:46:44.740Z,11.81
2023-01-01T17:49:14.688Z,11.80
2023-01-01T17:51:43.281Z,11.67
2023-01-01T17:54:14.189Z,11.65
2023-01-01T17:56:42.872Z,11.70
2023-01-01T17:59:12.302Z,11.64
2023-01-01T18:01:40.712Z,11.52
2023-01-01T18:04:10.848Z,11.46
2023-01-01T18:06:44.251Z,11.43
2023-01-01T18:09:16.263Z,11.43
2023-01-01T18:11:45.891Z,11.39
2023-01-01T18:14:17.332Z,11.32
2023-01-01T18:16:50.171Z,11.27
2023-01-01T18:19:19.287Z,11.17
2023-01-01T18:21:49.559Z,11.20
2023-01-01T18:24:17.925Z,11.09
2023-01-01T18:26:46.606Z,11.00
2023-01-01T18:29:15.487Z,11.00
2023-01-01T18:31:45.286Z,11.02
2023-01-01T18:34:14.318Z,10.99
2023-01-01T18:36:42.701Z,10.95
2023-01-01T18:39:17.602Z,10.85
2023-01-01T18:42:09.390Z,10.90
2023-01-01T18:44:38.003Z,10.85
2023-01-01T18:47:14.872Z,10.85
2023-01-01T18:49:48.918Z,10.73
2023-01-01T18:52:25.219Z,10.76
2023-01-01T18:55:13.527Z,10.75
2023-01-01T18:57:42.696Z,10.70
2023-01-01T19:00:22.839Z,10.72
2023-01-01T19:02:58.453Z,10.68
2023-01-01T19:05:29.936Z,10.70
2023-01-01T19:08:04.195Z,10.67
2023-01-01T19:10:38.484Z,10.66
2023-01-01T19:13:16.467Z,10.58
2023-01-01T19:15:47.216Z,10.62
2023-01-01T19:18:17.620Z,10.60
2023-01-01T19:20:46.737Z,10.56
2023-01-01T19:23:20.055Z,10.49
2023-01-01T19:25:51.153Z,10.39
2023-01-01T19:28:35.317Z,10.24
2023-01-01T19:31:05.333Z,10.44
2023-01-01T19:33:34.439Z,10.47
2023-01-01T19:36:02.757Z,10.50
2023-01-01T19:38:31.609Z,10.46
2023-01-01T19:41:01.343Z,10.45
2023-01-01T19:43:30.901Z,10.42
2023-01-01T19:45:59.357Z,10.37
2023-01-01T19:48:28.514Z,10.41
2023-01-01T19:50:57.259Z,10.41
2023-01-01T19:53:25.702Z,10.38
2023-01-01T19:55:54.704Z,10.34
2023-01-01T19:58:24.761Z,10.27
2023-01-01T20:00:53.929Z,10.28
2023-01-01T20:06:12.989Z,10.25
2023-01-01T20:08:41.798Z,10.25
2023-01-01T20:11:10.138Z,10.22
2023-01-01T20:13:40.114Z,10.19
2023-01-01T20:16:09.780Z,10.17
2023-01-01T20:18:38.170Z,10.17
2023-01-01T20:21:26.623Z,10.13
2023-01-01T20:23:56.181Z,10.09
2023-01-01T20:26:26.180Z,9.97
2023-01-01T20:29:18.980Z,9.95
2023-01-01T20:31:48.575Z,9.87
2023-01-01T20:34:17.035Z,9.88
2023-01-01T20:37:05.296Z,9.91
2023-01-01T20:39:34.165Z,9.87
2023-01-01T20:42:02.551Z,9.86
2023-01-01T20:44:32.880Z,9.79
2023-01-01T20:47:01.542Z,9.78
2023-01-01T20:49:29.898Z,9.78
2023-01-01T20:51:58.681Z,9.83
2023-01-01T20:54:27.181Z,9.84
2023-01-01T20:56:55.573Z,9.68
2023-01-01T20:59:35.247Z,9.60
2023-01-01T21:02:06.725Z,9.47
2023-01-01T21:04:39.388Z,9.53
2023-01-01T21:07:10.041Z,9.45
2023-01-01T21:09:39.945Z,9.46
2023-01-01T21:12:09.152Z,9.40
2023-01-01T21:14:37.961Z,9.47
2023-01-01T21:17:21.430Z,9.50
2023-01-01T21:19:50.617Z,9.46
2023-01-01T21:22:19.397Z,9.50
2023-01-01T21:24:53.544Z,9.42
2023-01-01T21:27:29.561Z,9.43
2023-01-01T21:29:58.781Z,9.47
2023-01-01T21:32:38.501Z,9.54
2023-01-01T21:35:17.223Z,9.55
2023-01-01T21:37:50.297Z,9.49
2023-01-01T21:40:41.100Z,9.45
2023-01-01T21:43:32.737Z,9.46
2023-01-01T21:46:22.301Z,9.46
2023-01-01T21:48:59.685Z,9.47
2023-01-01T21:51:31.449Z,9.50
2023-01-01T21:54:17.859Z,9.55
2023-01-01T21:56:53.969Z,9.57
2023-01-01T21:59:30.597Z,9.54
2023-01-01T22:02:19.512Z,9.43
2023-01-01T22:04:51.803Z,9.37
2023-01-01T22:10:18.192Z,9.35
2023-01-01T22:12:47.237Z,9.30
2023-01-01T22:15:30.337Z,9.24
2023-01-01T22:18:16.593Z,9.27
2023-01-01T22:20:47.834Z,9.24
2023-01-01T22:23:34.721Z,9.17
2023-01-01T22:26:19.843Z,9.13
2023-01-01T22:28:51.409Z,9.04
2023-01-01T22:31:24.990Z,9.06
2023-01-01T22:33:55.322Z,9.07
2023-01-01T22:36:28.063Z,9.05
2023-01-01T22:39:01.532Z,9.00
2023-01-01T22:41:30.841Z,8.97
2023-01-01T22:44:03.501Z,8.96
2023-01-01T22:46:36.911Z,8.94
2023-01-01T22:49:16.521Z,8.91
2023-01-01T22:51:48.311Z,8.81
2023-01-01T22:54:17.044Z,8.71
2023-01-01T22:56:45.364Z,8.57
2023-01-01T22:59:14.450Z,8.65
2023-01-01T23:01:42.808Z,8.65
2023-01-01T23:04:12.057Z,8.35
2023-01-01T23:06:40.677Z,8.52
2023-01-01T23:09:11.840Z,8.59
2023-01-01T23:11:41.039Z,8.40
2023-01-01T23:14:27.686Z,8.48
2023-01-01T23:16:56.288Z,8.46
2023-01-01T23:19:24.630Z,8.39
2023-01-01T23:21:53.070Z,8.39
2023-01-01T23:24:25.582Z,8.43
2023-01-01T23:26:54.609Z,8.42
2023-01-01T23:29:24.702Z,8.17
2023-01-01T23:31:53.817Z,8.25
2023-01-01T23:34:22.406Z,8.26
2023-01-01T23:36:54.327Z,8.17
2023-01-01T23:39:24.056Z,8.13
2023-01-01T23:41:53.176Z,8.16
2023-01-01T23:44:21.489Z,8.21
2023-01-01T23:46:50.936Z,8.15
2023-01-01T23:49:20.365Z,8.18
2023-01-01T23:51:49.729Z,8.14
2023-01-01T23:54:18.824Z,8.15
2023-01-01T23:56:48.592Z,8.10
2023-01-01T23:59:17.607Z,7.82
